createdAt,value
2022-08-28T00:01:19.382Z,67.94
2022-08-28T00:03:51.495Z,68.23
2022-08-28T00:06:23.591Z,67.96
2022-08-28T00:08:56.539Z,68.16
2022-08-28T00:11:28.525Z,68.25
2022-08-28T00:14:00.971Z,68.25
2022-08-28T00:16:33.714Z,68.64
2022-08-28T00:19:06.729Z,68.44
2022-08-28T00:21:38.779Z,68.16
2022-08-28T00:24:11.394Z,68.61
2022-08-28T00:27:03.146Z,68.45
2022-08-28T00:29:35.278Z,68.85
2022-08-28T00:32:08.961Z,68.54
2022-08-28T00:34:41.264Z,68.86
2022-08-28T00:37:13.314Z,68.95
2022-08-28T00:39:45.388Z,69.38
2022-08-28T00:42:17.470Z,69.41
2022-08-28T00:44:49.557Z,69.22
2022-08-28T00:47:26.428Z,69.98
2022-08-28T00:49:58.663Z,69.83
2022-08-28T00:52:30.865Z,70.01
2022-08-28T00:55:09.306Z,70.06
2022-08-28T00:57:49.430Z,70.01
2022-08-28T01:00:33.942Z,69.59
2022-08-28T01:03:06.997Z,69.41
2022-08-28T01:05:43.752Z,68.85
2022-08-28T01:08:16.896Z,69.50
2022-08-28T01:10:55.021Z,69.54
2022-08-28T01:13:28.352Z,69.29
2022-08-28T01:16:01.698Z,69.98
2022-08-28T01:18:34.953Z,70.07
2022-08-28T01:21:31.263Z,69.96
2022-08-28T01:24:08.740Z,70.02
2022-08-28T01:26:42.134Z,70.17
2022-08-28T01:29:14.802Z,70.49
2022-08-28T01:31:48.527Z,70.26
2022-08-28T01:34:21.302Z,69.87
2022-08-28T01:36:53.324Z,69.61
2022-08-28T01:39:28.189Z,70.04
2022-08-28T01:42:03.716Z,69.93
2022-08-28T01:44:35.670Z,69.75
2022-08-28T01:47:07.680Z,69.55
2022-08-28T01:49:39.661Z,69.45
2022-08-28T01:52:11.861Z,69.95
2022-08-28T01:54:43.868Z,69.63
2022-08-28T01:57:15.891Z,70.05
2022-08-28T01:59:50.907Z,70.18
2022-08-28T02:02:23.236Z,69.95
2022-08-28T02:04:55.169Z,69.89
2022-08-28T02:07:27.189Z,69.79
2022-08-28T02:10:02.922Z,69.87
2022-08-28T02:12:36.023Z,70.14
2022-08-28T02:15:08.739Z,69.97
2022-08-28T02:17:40.885Z,69.61
2022-08-28T02:20:13.093Z,69.91
2022-08-28T02:22:45.830Z,70.38
2022-08-28T02:25:18.864Z,70.13
2022-08-28T02:27:50.975Z,69.83
2022-08-28T02:30:23.689Z,69.81
2022-08-28T02:32:55.746Z,70.45
2022-08-28T02:35:28.001Z,70.17
2022-08-28T02:38:01.115Z,70.31
2022-08-28T02:40:33.310Z,69.64
2022-08-28T02:43:06.029Z,69.87
2022-08-28T02:45:38.066Z,69.67
2022-08-28T02:48:11.931Z,70.00
2022-08-28T02:50:49.051Z,69.78
2022-08-28T02:53:21.045Z,69.27
2022-08-28T02:55:53.099Z,69.66
2022-08-28T02:58:27.442Z,69.67
2022-08-28T03:01:01.919Z,69.51
2022-08-28T03:03:34.361Z,69.59
2022-08-28T03:06:07.689Z,69.26
2022-08-28T03:08:43.850Z,69.31
2022-08-28T03:11:15.915Z,70.00
2022-08-28T03:13:47.993Z,70.24
2022-08-28T03:16:20.437Z,69.92
2022-08-28T03:18:52.621Z,69.32
2022-08-28T03:21:24.734Z,69.48
2022-08-28T03:23:56.737Z,69.56
2022-08-28T03:26:29.778Z,69.54
2022-08-28T03:29:01.846Z,69.69
2022-08-28T03:31:35.950Z,69.50
2022-08-28T03:34:08.382Z,69.76
2022-08-28T03:36:40.361Z,69.90
2022-08-28T03:39:13.942Z,69.44
2022-08-28T03:41:45.969Z,70.37
2022-08-28T03:44:17.980Z,70.26
2022-08-28T03:46:49.931Z,69.89
2022-08-28T03:49:22.056Z,70.15
2022-08-28T03:51:55.102Z,69.94
2022-08-28T03:54:27.161Z,70.44
2022-08-28T03:56:59.210Z,70.28
2022-08-28T03:59:32.010Z,70.36
2022-08-28T04:02:05.761Z,70.62
2022-08-28T04:04:37.759Z,70.51
2022-08-28T04:07:09.750Z,71.13
2022-08-28T04:09:41.813Z,71.00
2022-08-28T04:12:15.351Z,71.21
2022-08-28T04:14:47.758Z,71.14
2022-08-28T04:17:20.049Z,71.68
2022-08-28T04:19:55.265Z,71.97
2022-08-28T04:22:27.571Z,71.79
2022-08-28T04:24:59.725Z,71.86
2022-08-28T04:27:31.946Z,71.57
2022-08-28T04:30:05.427Z,71.45
2022-08-28T04:32:39.759Z,71.27
2022-08-28T04:35:14.701Z,71.41
2022-08-28T04:37:46.672Z,71.55
2022-08-28T04:40:19.395Z,71.24
2022-08-28T04:42:51.840Z,71.73
2022-08-28T04:45:24.020Z,71.55
2022-08-28T04:47:55.973Z,71.49
2022-08-28T04:50:28.067Z,71.58
2022-08-28T04:53:00.273Z,71.24
2022-08-28T04:55:54.720Z,71.17
2022-08-28T04:58:24.556Z,71.22
2022-08-28T05:00:57.254Z,71.26
2022-08-28T05:03:29.282Z,71.10
2022-08-28T05:06:03.692Z,71.09
2022-08-28T05:08:35.693Z,71.03
2022-08-28T05:11:33.148Z,71.13
2022-08-28T05:14:13.912Z,71.18
2022-08-28T05:16:51.221Z,70.80
2022-08-28T05:19:24.764Z,70.94
2022-08-28T05:21:56.894Z,71.22
2022-08-28T05:24:28.957Z,71.28
2022-08-28T05:27:01.073Z,70.97
2022-08-28T05:29:33.447Z,71.15
2022-08-28T05:32:05.805Z,70.90
2022-08-28T05:34:37.777Z,70.31
2022-08-28T05:37:09.880Z,70.17
2022-08-28T05:39:41.897Z,70.64
2022-08-28T05:42:13.892Z,70.28
2022-08-28T05:44:45.898Z,70.40
2022-08-28T05:47:18.491Z,70.38
2022-08-28T05:49:53.672Z,70.08
2022-08-28T05:52:26.193Z,70.03
2022-08-28T05:54:58.662Z,69.72
2022-08-28T05:57:30.683Z,69.67
2022-08-28T06:00:04.968Z,69.28
2022-08-28T06:02:36.960Z,68.96
2022-08-28T06:05:12.994Z,68.69
2022-08-28T06:07:45.273Z,68.65
2022-08-28T06:10:17.717Z,68.67
2022-08-28T06:12:51.220Z,68.29
2022-08-28T06:15:23.195Z,67.89
2022-08-28T06:17:55.688Z,67.65
2022-08-28T06:20:27.636Z,67.57
2022-08-28T06:22:59.652Z,67.00
2022-08-28T06:25:31.613Z,67.14
2022-08-28T06:28:03.886Z,66.21
2022-08-28T06:30:37.303Z,65.79
2022-08-28T06:33:13.949Z,65.67
2022-08-28T06:35:49.930Z,65.32
2022-08-28T06:38:25.936Z,65.21
2022-08-28T06:40:58.734Z,65.00
2022-08-28T06:43:30.729Z,64.50
2022-08-28T06:46:03.481Z,65.12
2022-08-28T06:48:35.711Z,64.85
2022-08-28T06:51:11.383Z,64.77
2022-08-28T06:53:45.910Z,64.70
2022-08-28T06:56:26.349Z,64.41
2022-08-28T06:59:01.677Z,65.14
2022-08-28T07:01:37.017Z,64.23
2022-08-28T07:04:11.234Z,64.44
2022-08-28T07:06:54.215Z,64.78
2022-08-28T07:09:26.894Z,63.43
2022-08-28T07:11:58.880Z,63.13
2022-08-28T07:14:30.869Z,62.95
2022-08-28T07:17:02.869Z,62.02
2022-08-28T07:19:35.038Z,61.73
2022-08-28T07:22:07.052Z,61.28
2022-08-28T07:24:39.196Z,60.99
2022-08-28T07:27:14.661Z,59.56
2022-08-28T07:29:49.290Z,60.16
2022-08-28T07:32:23.960Z,58.68
2022-08-28T07:34:57.514Z,58.04
2022-08-28T07:37:30.201Z,56.47
2022-08-28T07:40:02.338Z,55.87
2022-08-28T07:42:52.729Z,55.15
2022-08-28T07:45:26.271Z,54.54
2022-08-28T07:47:58.438Z,53.74
2022-08-28T07:50:30.442Z,52.47
2022-08-28T07:53:02.539Z,51.35
2022-08-28T07:55:34.889Z,50.51
2022-08-28T07:58:07.386Z,49.16
2022-08-28T08:00:39.405Z,48.35
2022-08-28T08:03:11.495Z,47.10
2022-08-28T08:05:56.042Z,45.74
2022-08-28T08:08:32.655Z,44.57
2022-08-28T08:11:16.589Z,43.94
2022-08-28T08:13:51.014Z,43.38
2022-08-28T08:16:26.154Z,42.77
2022-08-28T08:18:58.205Z,42.89
2022-08-28T08:21:30.793Z,41.01
2022-08-28T08:24:03.484Z,40.66
2022-08-28T08:26:36.422Z,40.29
2022-08-28T08:29:08.719Z,40.41
2022-08-28T08:31:41.149Z,40.63
2022-08-28T08:34:16.964Z,41.07
2022-08-28T08:36:49.036Z,40.38
2022-08-28T08:39:21.153Z,39.02
2022-08-28T08:41:59.919Z,38.91
2022-08-28T08:44:43.076Z,37.51
2022-08-28T08:47:39.349Z,37.12
2022-08-28T08:50:29.834Z,37.41
2022-08-28T08:53:32.253Z,35.72
2022-08-28T08:56:06.319Z,35.38
2022-08-28T08:58:42.322Z,35.86
2022-08-28T09:02:12.282Z,35.56
2022-08-28T09:04:49.824Z,37.93
2022-08-28T09:07:38.134Z,34.96
2022-08-28T09:10:12.600Z,30.95
2022-08-28T09:13:02.923Z,29.79
2022-08-28T09:15:42.765Z,28.94
2022-08-28T09:18:28.642Z,27.12
2022-08-28T09:21:00.779Z,26.80
2022-08-28T09:23:32.958Z,25.57
2022-08-28T09:26:12.892Z,26.52
2022-08-28T09:28:50.783Z,27.06
2022-08-28T09:31:41.205Z,27.62
2022-08-28T09:34:38.568Z,27.28
2022-08-28T09:37:27.002Z,26.54
2022-08-28T09:40:22.947Z,29.93
2022-08-28T09:43:26.763Z,31.28
2022-08-28T09:46:07.099Z,32.85
2022-08-28T09:48:43.773Z,34.15
2022-08-28T09:51:21.435Z,32.88
2022-08-28T09:53:56.325Z,33.64
2022-08-28T09:56:35.722Z,32.03
2022-08-28T09:59:12.896Z,30.32
2022-08-28T10:02:20.514Z,29.14
2022-08-28T10:05:08.825Z,28.12
2022-08-28T10:08:23.352Z,26.98
2022-08-28T10:11:01.408Z,29.15
2022-08-28T10:13:48.219Z,30.18
2022-08-28T10:16:33.770Z,30.90
2022-08-28T10:19:42.080Z,32.58
2022-08-28T10:22:51.355Z,30.39
2022-08-28T10:25:40.690Z,29.35
2022-08-28T10:28:34.990Z,30.86
2022-08-28T10:31:37.065Z,33.35
2022-08-28T10:34:46.930Z,34.67
2022-08-28T10:38:05.510Z,35.83
2022-08-28T10:41:10.871Z,34.95
2022-08-28T10:43:48.528Z,34.10
2022-08-28T10:46:35.502Z,31.52
2022-08-28T10:49:29.176Z,28.57
2022-08-28T10:52:26.585Z,26.07
2022-08-28T10:55:23.183Z,24.91
2022-08-28T10:58:23.894Z,25.66
2022-08-28T11:01:04.684Z,23.70
2022-08-28T11:03:49.409Z,25.48
2022-08-28T11:06:35.667Z,28.45
2022-08-28T11:09:26.853Z,30.40
2022-08-28T11:12:09.706Z,31.84
2022-08-28T11:14:47.887Z,32.65
2022-08-28T11:17:25.323Z,30.89
2022-08-28T11:20:59.820Z,29.71
2022-08-28T11:23:49.896Z,25.15
2022-08-28T11:26:37.676Z,22.63
2022-08-28T11:29:10.216Z,23.13
2022-08-28T11:31:45.045Z,21.98
2022-08-28T11:34:58.223Z,22.77
2022-08-28T11:37:52.258Z,26.21
2022-08-28T11:40:33.412Z,29.57
2022-08-28T11:43:16.240Z,30.67
2022-08-28T11:45:49.159Z,31.35
2022-08-28T11:48:36.358Z,31.95
2022-08-28T11:51:17.608Z,29.50
2022-08-28T11:54:21.839Z,27.16
2022-08-28T11:57:11.481Z,27.71
2022-08-28T11:59:58.387Z,28.79
2022-08-28T12:02:43.269Z,32.04
2022-08-28T12:05:15.345Z,33.38
2022-08-28T12:07:50.771Z,33.56
2022-08-28T12:10:22.677Z,33.07
2022-08-28T12:13:00.909Z,32.31
2022-08-28T12:15:33.586Z,29.94
2022-08-28T12:18:11.825Z,30.15
2022-08-28T12:21:07.121Z,31.42
2022-08-28T12:23:41.243Z,30.80
2022-08-28T12:26:27.374Z,28.97
2022-08-28T12:29:05.891Z,28.66
2022-08-28T12:32:11.647Z,30.31
2022-08-28T12:34:58.844Z,30.14
2022-08-28T12:37:52.239Z,31.66
2022-08-28T12:40:29.753Z,32.92
2022-08-28T12:43:08.435Z,34.36
2022-08-28T12:45:52.722Z,34.59
2022-08-28T12:48:34.483Z,33.64
2022-08-28T12:51:14.474Z,34.32
2022-08-28T12:53:53.492Z,33.27
2022-08-28T12:56:30.214Z,31.16
2022-08-28T12:59:27.773Z,31.10
2022-08-28T13:02:31.414Z,31.22
2022-08-28T13:05:10.378Z,32.51
2022-08-28T13:07:50.293Z,33.14
2022-08-28T13:10:30.866Z,34.31
2022-08-28T13:13:06.554Z,34.33
2022-08-28T13:15:53.519Z,34.42
2022-08-28T13:18:49.852Z,32.83
2022-08-28T13:21:32.844Z,31.70
2022-08-28T13:24:35.962Z,30.36
2022-08-28T13:27:20.866Z,29.85
2022-08-28T13:30:07.369Z,31.35
2022-08-28T13:32:40.795Z,32.50
2022-08-28T13:35:32.764Z,33.39
2022-08-28T13:38:12.777Z,33.79
2022-08-28T13:41:04.172Z,33.00
2022-08-28T13:43:47.362Z,34.11
2022-08-28T13:46:20.132Z,34.66
2022-08-28T13:48:52.255Z,35.55
2022-08-28T13:51:26.649Z,34.88
2022-08-28T13:53:58.920Z,34.94
2022-08-28T13:56:32.733Z,34.25
2022-08-28T13:59:05.584Z,33.20
2022-08-28T14:01:57.644Z,34.09
2022-08-28T14:04:29.825Z,34.23
2022-08-28T14:07:01.898Z,34.75
2022-08-28T14:09:35.468Z,35.58
2022-08-28T14:12:10.064Z,36.19
2022-08-28T14:14:42.161Z,34.95
2022-08-28T14:17:14.266Z,34.81
2022-08-28T14:19:46.251Z,36.62
2022-08-28T14:22:18.244Z,36.02
2022-08-28T14:24:50.209Z,35.97
2022-08-28T14:27:22.206Z,36.56
2022-08-28T14:29:54.253Z,37.14
2022-08-28T14:32:26.289Z,36.21
2022-08-28T14:34:58.299Z,37.24
2022-08-28T14:37:30.304Z,37.35
2022-08-28T14:40:02.474Z,37.50
2022-08-28T14:42:34.829Z,37.17
2022-08-28T14:45:07.222Z,37.76
2022-08-28T14:47:39.437Z,37.84
2022-08-28T14:50:11.640Z,36.98
2022-08-28T14:52:43.651Z,35.91
2022-08-28T14:55:18.740Z,35.99
2022-08-28T14:57:51.363Z,35.98
2022-08-28T15:00:23.495Z,36.04
2022-08-28T15:02:59.857Z,36.33
2022-08-28T15:05:32.163Z,36.41
2022-08-28T15:08:14.900Z,37.18
2022-08-28T15:10:48.686Z,37.13
2022-08-28T15:13:21.921Z,37.02
2022-08-28T15:16:16.075Z,34.82
2022-08-28T15:18:48.742Z,35.94
2022-08-28T15:21:34.738Z,37.73
2022-08-28T15:24:07.710Z,39.17
2022-08-28T15:26:40.307Z,39.55
2022-08-28T15:29:12.680Z,41.08
2022-08-28T15:31:49.077Z,41.66
2022-08-28T15:34:25.209Z,42.28
2022-08-28T15:36:59.350Z,43.33
2022-08-28T15:39:49.702Z,43.72
2022-08-28T15:42:23.371Z,44.08
2022-08-28T15:44:55.397Z,44.17
2022-08-28T15:47:27.598Z,43.25
2022-08-28T15:49:59.627Z,43.20
2022-08-28T15:52:32.221Z,43.11
2022-08-28T15:55:06.334Z,43.90
2022-08-28T15:57:38.342Z,43.48
2022-08-28T16:00:11.952Z,42.77
2022-08-28T16:02:44.571Z,43.12
2022-08-28T16:05:17.406Z,43.16
2022-08-28T16:07:49.455Z,42.98
2022-08-28T16:10:22.479Z,43.05
2022-08-28T16:12:57.536Z,42.84
2022-08-28T16:15:30.161Z,42.14
2022-08-28T16:18:02.459Z,42.27
2022-08-28T16:20:35.199Z,42.06
2022-08-28T16:23:08.839Z,41.87
2022-08-28T16:25:41.655Z,41.79
2022-08-28T16:28:14.167Z,42.18
2022-08-28T16:30:46.784Z,42.31
2022-08-28T16:33:22.144Z,42.08
2022-08-28T16:35:56.412Z,41.57
2022-08-28T16:38:28.766Z,40.72
2022-08-28T16:41:00.786Z,40.48
2022-08-28T16:43:32.896Z,38.92
2022-08-28T16:46:10.293Z,39.42
2022-08-28T16:48:44.214Z,39.79
2022-08-28T16:51:17.213Z,39.94
2022-08-28T16:53:49.379Z,39.95
2022-08-28T16:56:23.663Z,39.97
2022-08-28T16:58:57.156Z,39.68
2022-08-28T17:01:29.558Z,39.61
2022-08-28T17:04:01.930Z,40.03
2022-08-28T17:06:35.540Z,39.69
2022-08-28T17:09:07.562Z,40.39
2022-08-28T17:11:39.810Z,40.53
2022-08-28T17:14:12.138Z,41.49
2022-08-28T17:16:44.541Z,40.77
2022-08-28T17:19:24.814Z,41.00
2022-08-28T17:22:15.323Z,41.23
2022-08-28T17:24:47.850Z,42.10
2022-08-28T17:27:22.648Z,41.84
2022-08-28T17:29:55.817Z,42.74
2022-08-28T17:32:28.705Z,43.02
2022-08-28T17:35:01.596Z,42.87
2022-08-28T17:37:33.617Z,43.23
2022-08-28T17:40:10.359Z,43.37
2022-08-28T17:42:45.725Z,42.58
2022-08-28T17:45:17.779Z,42.65
2022-08-28T17:47:52.518Z,43.17
2022-08-28T17:50:24.601Z,42.77
2022-08-28T17:52:56.626Z,42.70
2022-08-28T17:55:28.685Z,43.51
2022-08-28T17:58:00.669Z,43.32
2022-08-28T18:00:33.538Z,43.59
2022-08-28T18:03:05.804Z,43.74
2022-08-28T18:05:41.149Z,43.32
2022-08-28T18:31:46.126Z,43.49
2022-08-28T18:34:18.239Z,43.73
2022-08-28T18:36:50.269Z,43.90
2022-08-28T18:39:29.524Z,44.13
2022-08-28T18:42:02.208Z,44.62
2022-08-28T18:44:34.342Z,44.74
2022-08-28T18:47:06.321Z,45.64
2022-08-28T18:49:38.399Z,45.29
2022-08-28T18:52:10.374Z,45.51
2022-08-28T18:54:42.505Z,45.18
2022-08-28T18:57:18.627Z,45.61
2022-08-28T18:59:50.920Z,45.87
2022-08-28T19:02:23.007Z,45.81
2022-08-28T19:04:55.138Z,46.09
2022-08-28T19:07:27.593Z,46.82
2022-08-28T19:09:59.734Z,48.36
2022-08-28T19:12:31.785Z,49.32
2022-08-28T19:15:07.411Z,49.63
2022-08-28T19:17:40.708Z,50.77
2022-08-28T19:20:17.301Z,51.21
2022-08-28T19:22:50.013Z,51.63
2022-08-28T19:25:28.440Z,52.10
2022-08-28T19:28:02.015Z,51.55
2022-08-28T19:30:35.621Z,51.71
2022-08-28T19:33:07.568Z,51.90
2022-08-28T19:35:39.748Z,52.09
2022-08-28T19:38:11.806Z,51.79
2022-08-28T19:40:45.644Z,51.98
2022-08-28T19:43:17.885Z,51.82
2022-08-28T19:45:49.949Z,51.65
2022-08-28T19:48:22.006Z,51.92
2022-08-28T19:51:06.692Z,52.02
2022-08-28T19:53:54.630Z,51.83
2022-08-28T19:56:33.888Z,51.50
2022-08-28T19:59:07.687Z,51.98
2022-08-28T20:01:43.644Z,51.39
2022-08-28T20:04:17.856Z,51.32
2022-08-28T20:06:49.931Z,51.30
2022-08-28T20:09:22.097Z,50.91
2022-08-28T20:11:54.888Z,50.61
2022-08-28T20:14:27.745Z,50.08
2022-08-28T20:17:00.596Z,50.77
2022-08-28T20:19:33.516Z,50.88
2022-08-28T20:22:06.000Z,51.05
2022-08-28T20:24:39.555Z,51.11
2022-08-28T20:27:11.605Z,51.14
2022-08-28T20:29:43.774Z,50.99
2022-08-28T20:32:15.798Z,51.15
2022-08-28T20:34:47.961Z,50.64
2022-08-28T20:37:20.162Z,50.22
2022-08-28T20:39:57.844Z,49.46
2022-08-28T20:42:31.801Z,49.34
2022-08-28T20:45:04.992Z,49.69
2022-08-28T20:47:37.159Z,50.23
2022-08-28T20:50:09.935Z,51.05
2022-08-28T20:52:42.426Z,51.47
2022-08-28T20:55:14.978Z,52.15
2022-08-28T20:57:46.989Z,52.11
2022-08-28T21:00:18.948Z,52.80
2022-08-28T21:02:50.962Z,52.99
2022-08-28T21:05:23.159Z,53.77
2022-08-28T21:07:55.163Z,53.99
2022-08-28T21:10:27.150Z,54.37
2022-08-28T21:12:59.323Z,54.31
2022-08-28T21:15:31.730Z,54.68
2022-08-28T21:18:04.363Z,54.87
2022-08-28T21:20:37.286Z,54.89
2022-08-28T21:23:09.290Z,54.50
2022-08-28T21:25:42.238Z,54.69
2022-08-28T21:28:14.606Z,54.77
2022-08-28T21:30:46.857Z,54.79
2022-08-28T21:33:18.872Z,54.94
2022-08-28T21:35:50.836Z,55.73
2022-08-28T21:38:22.814Z,55.10
2022-08-28T21:40:54.796Z,54.67
2022-08-28T21:43:27.010Z,54.83
2022-08-28T21:46:05.694Z,54.89
2022-08-28T21:48:38.079Z,55.02
2022-08-28T21:51:14.817Z,55.08
2022-08-28T21:53:47.486Z,55.16
2022-08-28T21:56:24.255Z,55.04
2022-08-28T21:58:57.546Z,55.01
2022-08-28T22:01:29.583Z,54.80
2022-08-28T22:04:01.863Z,54.70
2022-08-28T22:06:34.002Z,55.55
2022-08-28T22:09:07.409Z,55.63
2022-08-28T22:11:39.389Z,55.41
2022-08-28T22:14:11.379Z,55.90
2022-08-28T22:16:44.830Z,55.44
2022-08-28T22:19:16.869Z,55.42
2022-08-28T22:22:08.226Z,54.97
2022-08-28T22:24:40.281Z,55.17
2022-08-28T22:27:13.587Z,54.71
2022-08-28T22:29:45.712Z,55.14
2022-08-28T22:32:18.353Z,55.05
2022-08-28T22:34:50.473Z,55.21
2022-08-28T22:37:23.366Z,54.88
2022-08-28T22:39:55.517Z,55.39
2022-08-28T22:42:27.638Z,54.98
2022-08-28T22:44:59.825Z,55.69
2022-08-28T22:47:32.180Z,55.81
2022-08-28T22:50:04.899Z,56.47
2022-08-28T22:52:38.079Z,56.10
2022-08-28T22:55:12.812Z,56.34
2022-08-28T22:57:45.218Z,56.94
2022-08-28T23:00:24.729Z,56.77
2022-08-28T23:02:57.804Z,57.67
2022-08-28T23:05:30.467Z,57.96
2022-08-28T23:08:02.601Z,58.47
2022-08-28T23:10:55.596Z,58.51
2022-08-28T23:13:27.131Z,58.35
2022-08-28T23:16:00.634Z,58.49
2022-08-28T23:18:46.375Z,58.85
2022-08-28T23:21:26.612Z,58.69
2022-08-28T23:23:58.723Z,58.33
2022-08-28T23:26:30.800Z,59.14
2022-08-28T23:29:02.993Z,58.56
2022-08-28T23:31:35.644Z,58.93
2022-08-28T23:34:08.052Z,59.38
2022-08-28T23:36:42.947Z,59.82
2022-08-28T23:39:15.691Z,60.43
2022-08-28T23:41:47.957Z,60.52
2022-08-28T23:44:20.985Z,61.32
2022-08-28T23:46:52.948Z,60.59
2022-08-28T23:49:27.102Z,60.80
2022-08-28T23:51:59.195Z,60.14
2022-08-28T23:54:31.889Z,60.75
2022-08-28T23:57:05.331Z,60.80
2022-08-28T23:59:37.461Z,61.17
